sensor_id;sensor_type;location;lat;lon;timestamp;pressure;altitude;pressure_sealevel;temperature;humidity
30302;BME280;17111;52.130;5.028;2023-10-31T00:01:58;99728.72;;;18.18;59.46
30302;BME280;17111;52.130;5.028;2023-10-31T00:04:25;99732.44;;;18.17;59.53
30302;BME280;17111;52.130;5.028;2023-10-31T00:06:52;99733.44;;;18.16;59.27
30302;BME280;17111;52.130;5.028;2023-10-31T00:09:18;99729.91;;;18.16;59.58
30302;BME280;17111;52.130;5.028;2023-10-31T00:11:45;99740.66;;;18.16;59.59
30302;BME280;17111;52.130;5.028;2023-10-31T00:14:11;99736.13;;;18.16;59.28
30302;BME280;17111;52.130;5.028;2023-10-31T00:16:57;99730.94;;;18.15;59.45
30302;BME280;17111;52.130;5.028;2023-10-31T00:19:23;99739.00;;;18.15;59.70
30302;BME280;17111;52.130;5.028;2023-10-31T00:21:50;99739.00;;;18.15;59.42
30302;BME280;17111;52.130;5.028;2023-10-31T00:24:17;99733.81;;;18.13;59.59
30302;BME280;17111;52.130;5.028;2023-10-31T00:26:43;99735.47;;;18.14;59.23
30302;BME280;17111;52.130;5.028;2023-10-31T00:29:10;99738.31;;;18.13;59.27
30302;BME280;17111;52.130;5.028;2023-10-31T00:31:37;99738.31;;;18.13;59.27
30302;BME280;17111;52.130;5.028;2023-10-31T00:34:07;99738.31;;;18.13;59.35
30302;BME280;17111;52.130;5.028;2023-10-31T00:36:34;99731.28;;;18.12;59.30
30302;BME280;17111;52.130;5.028;2023-10-31T00:39:01;99738.50;;;18.11;59.31
30302;BME280;17111;52.130;5.028;2023-10-31T00:41:28;99742.03;;;18.12;59.47
30302;BME280;17111;52.130;5.028;2023-10-31T00:43:54;99746.56;;;18.11;59.45
30302;BME280;17111;52.130;5.028;2023-10-31T00:46:21;99750.25;;;18.10;59.32
30302;BME280;17111;52.130;5.028;2023-10-31T00:48:47;99752.94;;;18.10;59.58
30302;BME280;17111;52.130;5.028;2023-10-31T00:51:14;99755.63;;;18.10;59.50
30302;BME280;17111;52.130;5.028;2023-10-31T00:53:41;99754.78;;;18.10;59.77
30302;BME280;17111;52.130;5.028;2023-10-31T00:56:07;99753.97;;;18.09;59.31
30302;BME280;17111;52.130;5.028;2023-10-31T00:58:34;99760.16;;;18.10;59.42
30302;BME280;17111;52.130;5.028;2023-10-31T01:01:01;99763.84;;;18.09;59.34
30302;BME280;17111;52.130;5.028;2023-10-31T01:03:27;99759.31;;;18.09;59.39
30302;BME280;17111;52.130;5.028;2023-10-31T01:05:55;99763.84;;;18.09;59.13
30302;BME280;17111;52.130;5.028;2023-10-31T01:08:21;99760.31;;;18.08;59.44
30302;BME280;17111;52.130;5.028;2023-10-31T01:10:48;99762.16;;;18.08;59.04
30302;BME280;17111;52.130;5.028;2023-10-31T01:13:15;99769.38;;;18.07;58.93
30302;BME280;17111;52.130;5.028;2023-10-31T01:15:41;99766.72;;;18.07;59.04
30302;BME280;17111;52.130;5.028;2023-10-31T01:18:08;99766.91;;;18.06;58.84
30302;BME280;17111;52.130;5.028;2023-10-31T01:20:35;99766.91;;;18.06;58.95
30302;BME280;17111;52.130;5.028;2023-10-31T01:23:01;99766.06;;;18.05;59.09
30302;BME280;17111;52.130;5.028;2023-10-31T01:25:28;99764.38;;;18.04;59.00
30302;BME280;17111;52.130;5.028;2023-10-31T01:27:54;99772.41;;;18.04;59.23
30302;BME280;17111;52.130;5.028;2023-10-31T01:30:21;99769.94;;;18.03;58.89
30302;BME280;17111;52.130;5.028;2023-10-31T01:32:48;99775.09;;;18.04;59.12
30302;BME280;17111;52.130;5.028;2023-10-31T01:35:15;99777.97;;;18.03;59.02
30302;BME280;17111;52.130;5.028;2023-10-31T01:37:41;99771.78;;;18.02;59.30
30302;BME280;17111;52.130;5.028;2023-10-31T01:40:12;99776.47;;;18.00;59.25
30302;BME280;17111;52.130;5.028;2023-10-31T01:42:39;99772.81;;;18.01;58.87
30302;BME280;17111;52.130;5.028;2023-10-31T01:45:06;99776.47;;;18.00;59.06
30302;BME280;17111;52.130;5.028;2023-10-31T01:47:33;99781.00;;;17.99;59.13
30302;BME280;17111;52.130;5.028;2023-10-31T01:50:00;99785.53;;;17.99;59.01
30302;BME280;17111;52.130;5.028;2023-10-31T01:52:27;99790.06;;;17.98;59.14
30302;BME280;17111;52.130;5.028;2023-10-31T01:54:54;99786.56;;;17.98;58.81
30302;BME280;17111;52.130;5.028;2023-10-31T01:57:21;99789.25;;;17.98;59.21
30302;BME280;17111;52.130;5.028;2023-10-31T01:59:48;99792.06;;;17.96;58.97
30302;BME280;17111;52.130;5.028;2023-10-31T02:02:15;99792.94;;;17.97;58.66
30302;BME280;17111;52.130;5.028;2023-10-31T02:04:42;99802.81;;;17.96;58.88
30302;BME280;17111;52.130;5.028;2023-10-31T02:07:09;99802.81;;;17.96;58.83
30302;BME280;17111;52.130;5.028;2023-10-31T02:09:36;99802.16;;;17.94;58.82
30302;BME280;17111;52.130;5.028;2023-10-31T02:12:03;99806.50;;;17.95;59.30
30302;BME280;17111;52.130;5.028;2023-10-31T02:14:29;99801.34;;;17.94;59.33
30302;BME280;17111;52.130;5.028;2023-10-31T02:16:56;99803.19;;;17.93;59.33
30302;BME280;17111;52.130;5.028;2023-10-31T02:19:22;99810.22;;;17.94;59.11
30302;BME280;17111;52.130;5.028;2023-10-31T02:21:49;99811.22;;;17.93;58.88
30302;BME280;17111;52.130;5.028;2023-10-31T02:24:16;99818.41;;;17.93;59.09
30302;BME280;17111;52.130;5.028;2023-10-31T02:26:42;99816.75;;;17.92;58.86
30302;BME280;17111;52.130;5.028;2023-10-31T02:29:09;99825.63;;;17.92;59.27
30302;BME280;17111;52.130;5.028;2023-10-31T02:31:36;99824.78;;;17.92;59.51
30302;BME280;17111;52.130;5.028;2023-10-31T02:34:02;99819.63;;;17.90;59.24
30302;BME280;17111;52.130;5.028;2023-10-31T02:36:29;99825.81;;;17.91;59.29
30302;BME280;17111;52.130;5.028;2023-10-31T02:38:56;99830.16;;;17.92;59.21
30302;BME280;17111;52.130;5.028;2023-10-31T02:41:22;99837.38;;;17.91;59.27
30302;BME280;17111;52.130;5.028;2023-10-31T02:43:50;99835.69;;;17.90;59.57
30302;BME280;17111;52.130;5.028;2023-10-31T02:46:17;99841.06;;;17.90;59.58
30302;BME280;17111;52.130;5.028;2023-10-31T02:48:44;99841.91;;;17.91;59.48
30302;BME280;17111;52.130;5.028;2023-10-31T02:51:11;99849.09;;;17.90;59.33
30302;BME280;17111;52.130;5.028;2023-10-31T02:53:37;99843.91;;;17.89;59.38
30302;BME280;17111;52.130;5.028;2023-10-31T02:56:04;99850.13;;;17.89;59.25
30302;BME280;17111;52.130;5.028;2023-10-31T02:58:31;99861.69;;;17.90;59.44
30302;BME280;17111;52.130;5.028;2023-10-31T03:00:57;99860.84;;;17.89;59.57
30302;BME280;17111;52.130;5.028;2023-10-31T03:03:24;99851.13;;;17.88;59.38
30302;BME280;17111;52.130;5.028;2023-10-31T03:05:50;99863.69;;;17.88;59.62
30302;BME280;17111;52.130;5.028;2023-10-31T03:08:17;99869.03;;;17.88;59.72
30302;BME280;17111;52.130;5.028;2023-10-31T03:10:48;99865.34;;;17.89;59.37
30302;BME280;17111;52.130;5.028;2023-10-31T03:13:17;99875.25;;;17.88;59.45
30302;BME280;17111;52.130;5.028;2023-10-31T03:15:44;99880.59;;;17.88;59.77
30302;BME280;17111;52.130;5.028;2023-10-31T03:18:11;99877.91;;;17.88;59.68
30302;BME280;17111;52.130;5.028;2023-10-31T03:20:38;99877.09;;;17.88;59.47
30302;BME280;17111;52.130;5.028;2023-10-31T03:23:04;99881.63;;;17.87;59.54
30302;BME280;17111;52.130;5.028;2023-10-31T03:25:31;99886.97;;;17.87;59.80
30302;BME280;17111;52.130;5.028;2023-10-31T03:27:58;99886.97;;;17.87;59.63
30302;BME280;17111;52.130;5.028;2023-10-31T03:30:24;99896.03;;;17.86;59.64
30302;BME280;17111;52.130;5.028;2023-10-31T03:32:51;99899.56;;;17.87;59.66
30302;BME280;17111;52.130;5.028;2023-10-31T03:35:17;99900.56;;;17.86;59.53
30302;BME280;17111;52.130;5.028;2023-10-31T03:37:44;99895.22;;;17.86;60.00
30302;BME280;17111;52.130;5.028;2023-10-31T03:40:11;99906.91;;;17.85;59.66
30302;BME280;17111;52.130;5.028;2023-10-31T03:42:37;99909.59;;;17.85;59.69
30302;BME280;17111;52.130;5.028;2023-10-31T03:45:04;99906.91;;;17.85;59.60
30302;BME280;17111;52.130;5.028;2023-10-31T03:47:31;99906.09;;;17.84;59.81
30302;BME280;17111;52.130;5.028;2023-10-31T03:49:58;99910.63;;;17.84;59.57
30302;BME280;17111;52.130;5.028;2023-10-31T03:52:24;99913.31;;;17.84;59.88
30302;BME280;17111;52.130;5.028;2023-10-31T03:54:51;99919.69;;;17.83;59.68
30302;BME280;17111;52.130;5.028;2023-10-31T03:57:17;99916.16;;;17.82;59.67
30302;BME280;17111;52.130;5.028;2023-10-31T03:59:44;99919.69;;;17.83;59.56
30302;BME280;17111;52.130;5.028;2023-10-31T04:02:11;99908.28;;;17.81;59.62
30302;BME280;17111;52.130;5.028;2023-10-31T04:04:38;99920.69;;;17.82;59.92
30302;BME280;17111;52.130;5.028;2023-10-31T04:07:04;99919.00;;;17.81;59.79
30302;BME280;17111;52.130;5.028;2023-10-31T04:09:31;99916.31;;;17.81;59.63
30302;BME280;17111;52.130;5.028;2023-10-31T04:11:57;99920.03;;;17.80;59.60
30302;BME280;17111;52.130;5.028;2023-10-31T04:14:24;99926.22;;;17.80;59.80
30302;BME280;17111;52.130;5.028;2023-10-31T04:16:51;99925.38;;;17.80;59.88
30302;BME280;17111;52.130;5.028;2023-10-31T04:19:17;99932.59;;;17.79;59.66
30302;BME280;17111;52.130;5.028;2023-10-31T04:21:44;99929.09;;;17.79;60.03
30302;BME280;17111;52.130;5.028;2023-10-31T04:24:10;99940.63;;;17.79;60.00
30302;BME280;17111;52.130;5.028;2023-10-31T04:26:40;99939.81;;;17.79;60.00
30302;BME280;17111;52.130;5.028;2023-10-31T04:29:06;99941.66;;;17.78;59.89
30302;BME280;17111;52.130;5.028;2023-10-31T04:31:33;99942.66;;;17.77;59.82
30302;BME280;17111;52.130;5.028;2023-10-31T04:34:09;99942.66;;;17.77;59.50
30302;BME280;17111;52.130;5.028;2023-10-31T04:36:36;99945.16;;;17.79;59.95
30302;BME280;17111;52.130;5.028;2023-10-31T04:39:02;99945.34;;;17.77;59.65
30302;BME280;17111;52.130;5.028;2023-10-31T04:41:29;99937.47;;;17.75;59.45
30302;BME280;17111;52.130;5.028;2023-10-31T04:43:55;99945.50;;;17.75;59.43
30302;BME280;17111;52.130;5.028;2023-10-31T04:46:24;99956.22;;;17.75;60.07
30302;BME280;17111;52.130;5.028;2023-10-31T04:48:53;99963.44;;;17.75;59.30
30302;BME280;17111;52.130;5.028;2023-10-31T04:51:20;99960.75;;;17.75;59.87
30302;BME280;17111;52.130;5.028;2023-10-31T04:53:47;99961.59;;;17.75;59.68
30302;BME280;17111;52.130;5.028;2023-10-31T04:56:14;99963.44;;;17.75;59.48
30302;BME280;17111;52.130;5.028;2023-10-31T04:58:42;99969.78;;;17.74;59.74
30302;BME280;17111;52.130;5.028;2023-10-31T05:01:09;99968.94;;;17.73;59.86
30302;BME280;17111;52.130;5.028;2023-10-31T05:03:36;99968.94;;;17.73;59.81
30302;BME280;17111;52.130;5.028;2023-10-31T05:06:04;99968.94;;;17.73;59.62
30302;BME280;17111;52.130;5.028;2023-10-31T05:08:31;99970.78;;;17.73;60.10
30302;BME280;17111;52.130;5.028;2023-10-31T05:10:59;99971.63;;;17.73;59.70
30302;BME280;17111;52.130;5.028;2023-10-31T05:13:26;99979.81;;;17.72;59.69
30302;BME280;17111;52.130;5.028;2023-10-31T05:15:52;99979.00;;;17.71;59.68
30302;BME280;17111;52.130;5.028;2023-10-31T05:18:19;99987.03;;;17.71;59.70
30302;BME280;17111;52.130;5.028;2023-10-31T05:20:46;99992.38;;;17.71;59.59
30302;BME280;17111;52.130;5.028;2023-10-31T05:23:13;99991.56;;;17.71;59.43
30302;BME280;17111;52.130;5.028;2023-10-31T05:25:39;99992.38;;;17.71;59.41
30302;BME280;17111;52.130;5.028;2023-10-31T05:28:06;99996.91;;;17.71;59.59
30302;BME280;17111;52.130;5.028;2023-10-31T05:30:32;100002.47;;;17.69;59.68
30302;BME280;17111;52.130;5.028;2023-10-31T05:32:59;100000.63;;;17.70;59.39
30302;BME280;17111;52.130;5.028;2023-10-31T05:35:26;100002.47;;;17.69;59.32
30302;BME280;17111;52.130;5.028;2023-10-31T05:37:52;99999.78;;;17.69;59.81
30302;BME280;17111;52.130;5.028;2023-10-31T05:40:19;100003.44;;;17.68;59.26
30302;BME280;17111;52.130;5.028;2023-10-31T05:42:48;99999.94;;;17.68;59.70
30302;BME280;17111;52.130;5.028;2023-10-31T05:45:15;100012.50;;;17.67;59.48
30302;BME280;17111;52.130;5.028;2023-10-31T05:47:42;100012.69;;;17.66;59.31
30302;BME280;17111;52.130;5.028;2023-10-31T05:50:08;100021.56;;;17.66;59.49
30302;BME280;17111;52.130;5.028;2023-10-31T05:52:35;100016.38;;;17.65;59.28
30302;BME280;17111;52.130;5.028;2023-10-31T05:55:03;100025.25;;;17.65;59.32
30302;BME280;17111;52.130;5.028;2023-10-31T05:57:29;100028.91;;;17.64;59.10
30302;BME280;17111;52.130;5.028;2023-10-31T05:59:56;100030.75;;;17.64;59.59
30302;BME280;17111;52.130;5.028;2023-10-31T06:02:22;100030.09;;;17.62;59.18
30302;BME280;17111;52.130;5.028;2023-10-31T06:04:49;100031.09;;;17.61;59.21
30302;BME280;17111;52.130;5.028;2023-10-31T06:07:16;100033.78;;;17.61;59.33
30302;BME280;17111;52.130;5.028;2023-10-31T06:09:42;100029.44;;;17.60;59.36
30302;BME280;17111;52.130;5.028;2023-10-31T06:12:09;100028.59;;;17.59;59.31
30302;BME280;17111;52.130;5.028;2023-10-31T06:14:36;100035.81;;;17.59;58.94
30302;BME280;17111;52.130;5.028;2023-10-31T06:17:03;100040.34;;;17.58;59.27
30302;BME280;17111;52.130;5.028;2023-10-31T06:19:35;100039.50;;;17.58;59.31
30302;BME280;17111;52.130;5.028;2023-10-31T06:22:03;100050.22;;;17.58;59.40
30302;BME280;17111;52.130;5.028;2023-10-31T06:24:29;100048.38;;;17.58;59.07
30302;BME280;17111;52.130;5.028;2023-10-31T06:26:56;100054.75;;;17.57;58.99
30302;BME280;17111;52.130;5.028;2023-10-31T06:29:23;100047.69;;;17.56;58.92
30302;BME280;17111;52.130;5.028;2023-10-31T06:32:09;100053.03;;;17.56;59.11
30302;BME280;17111;52.130;5.028;2023-10-31T06:34:36;100052.22;;;17.56;59.23
30302;BME280;17111;52.130;5.028;2023-10-31T06:37:02;100070.97;;;17.56;58.84
30302;BME280;17111;52.130;5.028;2023-10-31T06:39:29;100069.31;;;17.55;59.39
30302;BME280;17111;52.130;5.028;2023-10-31T06:41:56;100070.13;;;17.55;58.98
30302;BME280;17111;52.130;5.028;2023-10-31T06:44:22;100071.16;;;17.54;59.36
30302;BME280;17111;52.130;5.028;2023-10-31T06:46:49;100070.31;;;17.54;59.23
30302;BME280;17111;52.130;5.028;2023-10-31T06:49:16;100080.19;;;17.53;58.97
30302;BME280;17111;52.130;5.028;2023-10-31T06:51:42;100070.47;;;17.52;59.00
30302;BME280;17111;52.130;5.028;2023-10-31T06:54:09;100083.88;;;17.52;58.90
30302;BME280;17111;52.130;5.028;2023-10-31T06:56:35;100086.53;;;17.52;58.86
30302;BME280;17111;52.130;5.028;2023-10-31T06:59:02;100077.66;;;17.51;59.18
30302;BME280;17111;52.130;5.028;2023-10-31T07:01:29;100078.50;;;17.52;58.88
30302;BME280;17111;52.130;5.028;2023-10-31T07:03:55;100084.88;;;17.51;59.21
30302;BME280;17111;52.130;5.028;2023-10-31T07:06:22;100097.25;;;17.52;59.01
30302;BME280;17111;52.130;5.028;2023-10-31T07:08:49;100099.94;;;17.52;58.80
30302;BME280;17111;52.130;5.028;2023-10-31T07:11:15;100104.31;;;17.53;59.36
30302;BME280;17111;52.130;5.028;2023-10-31T07:13:42;100102.63;;;17.52;58.96
30302;BME280;17111;52.130;5.028;2023-10-31T07:16:09;100110.66;;;17.52;59.16
30302;BME280;17111;52.130;5.028;2023-10-31T07:18:35;100112.34;;;17.53;58.66
30302;BME280;17111;52.130;5.028;2023-10-31T07:21:03;100117.72;;;17.53;58.89
30302;BME280;17111;52.130;5.028;2023-10-31T07:23:29;100113.19;;;17.54;58.79
30302;BME280;17111;52.130;5.028;2023-10-31T07:25:56;100120.41;;;17.53;58.68
30302;BME280;17111;52.130;5.028;2023-10-31T07:28:22;100123.72;;;17.55;58.65
30302;BME280;17111;52.130;5.028;2023-10-31T07:30:49;100123.91;;;17.54;59.12
30302;BME280;17111;52.130;5.028;2023-10-31T07:33:16;100131.75;;;17.55;59.00
30302;BME280;17111;52.130;5.028;2023-10-31T07:35:43;100137.97;;;17.56;58.98
30302;BME280;17111;52.130;5.028;2023-10-31T07:38:10;100131.75;;;17.55;58.45
30302;BME280;17111;52.130;5.028;2023-10-31T07:40:37;100138.78;;;17.56;58.98
30302;BME280;17111;52.130;5.028;2023-10-31T07:43:03;100140.63;;;17.56;58.83
30302;BME280;17111;52.130;5.028;2023-10-31T07:45:30;100147.66;;;17.57;58.88
30302;BME280;17111;52.130;5.028;2023-10-31T07:47:56;100143.16;;;17.57;58.79
30302;BME280;17111;52.130;5.028;2023-10-31T07:50:23;100145.84;;;17.57;58.86
30302;BME280;17111;52.130;5.028;2023-10-31T07:52:49;100146.50;;;17.59;58.80
30302;BME280;17111;52.130;5.028;2023-10-31T07:55:16;100147.50;;;17.66;58.63
30302;BME280;17111;52.130;5.028;2023-10-31T07:57:43;100144.53;;;17.78;58.31
30302;BME280;17111;52.130;5.028;2023-10-31T08:00:11;100145.84;;;17.90;58.23
30302;BME280;17111;52.130;5.028;2023-10-31T08:02:37;100145.31;;;18.03;58.37
30302;BME280;17111;52.130;5.028;2023-10-31T08:05:04;100144.97;;;18.14;58.08
30302;BME280;17111;52.130;5.028;2023-10-31T08:07:31;100150.81;;;18.25;57.69
30302;BME280;17111;52.130;5.028;2023-10-31T08:09:58;100148.59;;;18.37;57.80
30302;BME280;17111;52.130;5.028;2023-10-31T08:12:25;100151.72;;;18.49;57.48
30302;BME280;17111;52.130;5.028;2023-10-31T08:14:51;100151.53;;;18.59;56.83
30302;BME280;17111;52.130;5.028;2023-10-31T08:17:18;100157.38;;;18.70;57.35
30302;BME280;17111;52.130;5.028;2023-10-31T08:19:44;100151.13;;;18.78;56.81
30302;BME280;17111;52.130;5.028;2023-10-31T08:22:13;100157.28;;;18.87;56.98
30302;BME280;17111;52.130;5.028;2023-10-31T08:24:40;100149.00;;;18.96;56.51
30302;BME280;17111;52.130;5.028;2023-10-31T08:27:06;100149.16;;;19.03;55.98
30302;BME280;17111;52.130;5.028;2023-10-31T08:29:33;100154.66;;;19.10;56.32
30302;BME280;17111;52.130;5.028;2023-10-31T08:32:00;100150.22;;;19.17;55.88
30302;BME280;17111;52.130;5.028;2023-10-31T08:34:27;100149.53;;;19.23;56.19
30302;BME280;17111;52.130;5.028;2023-10-31T08:36:53;100154.16;;;19.29;55.57
30302;BME280;17111;52.130;5.028;2023-10-31T08:39:22;100155.47;;;19.33;55.74
30302;BME280;17111;52.130;5.028;2023-10-31T08:41:53;100158.00;;;19.35;55.49
30302;BME280;17111;52.130;5.028;2023-10-31T08:44:20;100159.47;;;19.37;55.37
30302;BME280;17111;52.130;5.028;2023-10-31T08:46:47;100160.34;;;19.38;55.93
30302;BME280;17111;52.130;5.028;2023-10-31T08:49:14;100166.72;;;19.37;55.51
30302;BME280;17111;52.130;5.028;2023-10-31T08:51:42;100174.97;;;19.35;55.77
30302;BME280;17111;52.130;5.028;2023-10-31T08:54:09;100168.75;;;19.35;55.99
30302;BME280;17111;52.130;5.028;2023-10-31T08:56:36;100170.78;;;19.33;56.03
30302;BME280;17111;52.130;5.028;2023-10-31T08:59:02;100181.72;;;19.31;55.50
30302;BME280;17111;52.130;5.028;2023-10-31T09:01:30;100187.28;;;19.30;55.91
30302;BME280;17111;52.130;5.028;2023-10-31T09:03:56;100189.28;;;19.28;56.38
30302;BME280;17111;52.130;5.028;2023-10-31T09:06:25;100193.00;;;19.27;56.34
30302;BME280;17111;52.130;5.028;2023-10-31T09:08:51;100194.19;;;19.24;56.31
30302;BME280;17111;52.130;5.028;2023-10-31T09:11:18;100205.94;;;19.23;56.31
30302;BME280;17111;52.130;5.028;2023-10-31T09:13:45;100208.78;;;19.21;56.24
30302;BME280;17111;52.130;5.028;2023-10-31T09:16:11;100216.00;;;19.21;55.82
30302;BME280;17111;52.130;5.028;2023-10-31T09:18:40;100216.00;;;19.21;56.51
30302;BME280;17111;52.130;5.028;2023-10-31T09:21:08;100220.56;;;19.20;56.48
30302;BME280;17111;52.130;5.028;2023-10-31T09:23:34;100212.69;;;19.19;56.22
30302;BME280;17111;52.130;5.028;2023-10-31T09:26:01;100221.56;;;19.19;56.58
30302;BME280;17111;52.130;5.028;2023-10-31T09:28:27;100226.94;;;19.19;56.54
30302;BME280;17111;52.130;5.028;2023-10-31T09:30:54;100234.81;;;19.21;56.65
30302;BME280;17111;52.130;5.028;2023-10-31T09:33:21;100231.97;;;19.22;56.29
30302;BME280;17111;52.130;5.028;2023-10-31T09:35:48;100231.78;;;19.24;56.48
30302;BME280;17111;52.130;5.028;2023-10-31T09:38:14;100235.78;;;19.28;56.96
30302;BME280;17111;52.130;5.028;2023-10-31T09:40:41;100238.97;;;19.32;57.14
30302;BME280;17111;52.130;5.028;2023-10-31T09:43:07;100231.59;;;19.34;57.46
30302;BME280;17111;52.130;5.028;2023-10-31T09:45:36;100225.84;;;19.37;57.32
30302;BME280;17111;52.130;5.028;2023-10-31T09:48:02;100231.69;;;19.40;57.48
30302;BME280;17111;52.130;5.028;2023-10-31T09:50:30;100232.19;;;19.44;57.21
30302;BME280;17111;52.130;5.028;2023-10-31T09:52:57;100243.59;;;19.46;57.32
30302;BME280;17111;52.130;5.028;2023-10-31T09:55:26;100250.44;;;19.48;57.49
30302;BME280;17111;52.130;5.028;2023-10-31T09:57:53;100247.59;;;19.50;56.81
30302;BME280;17111;52.130;5.028;2023-10-31T10:00:20;100246.41;;;19.53;56.88
30302;BME280;17111;52.130;5.028;2023-10-31T10:02:47;100247.91;;;19.55;57.38
30302;BME280;17111;52.130;5.028;2023-10-31T10:05:16;100255.63;;;19.58;57.00
30302;BME280;17111;52.130;5.028;2023-10-31T10:07:45;100257.97;;;19.61;57.02
30302;BME280;17111;52.130;5.028;2023-10-31T10:10:12;100258.63;;;19.63;57.25
30302;BME280;17111;52.130;5.028;2023-10-31T10:12:44;100267.34;;;19.65;57.03
30302;BME280;17111;52.130;5.028;2023-10-31T10:15:11;100271.72;;;19.66;57.06
30302;BME280;17111;52.130;5.028;2023-10-31T10:17:38;100277.75;;;19.68;56.67
30302;BME280;17111;52.130;5.028;2023-10-31T10:20:10;100273.03;;;19.70;56.66
30302;BME280;17111;52.130;5.028;2023-10-31T10:22:41;100270.16;;;19.72;57.32
30302;BME280;17111;52.130;5.028;2023-10-31T10:25:13;100270.84;;;19.74;56.78
30302;BME280;17111;52.130;5.028;2023-10-31T10:27:42;100276.03;;;19.76;56.90
30302;BME280;17111;52.130;5.028;2023-10-31T10:30:10;100269.63;;;19.77;56.78
30302;BME280;17111;52.130;5.028;2023-10-31T10:32:37;100272.16;;;19.78;56.88
30302;BME280;17111;52.130;5.028;2023-10-31T10:35:04;100275.66;;;19.79;56.32
30302;BME280;17111;52.130;5.028;2023-10-31T10:37:31;100276.31;;;19.81;56.95
30302;BME280;17111;52.130;5.028;2023-10-31T10:39:58;100281.69;;;19.81;56.85
30302;BME280;17111;52.130;5.028;2023-10-31T10:44:58;100279.69;;;19.83;56.47
30302;BME280;17111;52.130;5.028;2023-10-31T10:47:29;100287.56;;;19.84;56.40
30302;BME280;17111;52.130;5.028;2023-10-31T10:50:01;100290.25;;;19.84;56.41
30302;BME280;17111;52.130;5.028;2023-10-31T10:52:30;100281.16;;;19.85;56.07
30302;BME280;17111;52.130;5.028;2023-10-31T10:55:13;100288.38;;;19.85;56.56
30302;BME280;17111;52.130;5.028;2023-10-31T11:00:28;100286.38;;;19.87;56.18
30302;BME280;17111;52.130;5.028;2023-10-31T11:02:56;100288.88;;;19.88;56.05
30302;BME280;17111;52.130;5.028;2023-10-31T11:05:24;100292.59;;;19.87;56.46
30302;BME280;17111;52.130;5.028;2023-10-31T11:07:52;100296.09;;;19.88;56.50
30302;BME280;17111;52.130;5.028;2023-10-31T11:10:19;100292.59;;;19.87;56.28
30302;BME280;17111;52.130;5.028;2023-10-31T11:12:45;100305.84;;;19.89;55.95
30302;BME280;17111;52.130;5.028;2023-10-31T11:15:15;100304.16;;;19.88;56.01
30302;BME280;17111;52.130;5.028;2023-10-31T11:17:44;100312.44;;;19.86;55.94
30302;BME280;17111;52.130;5.028;2023-10-31T11:20:12;100321.34;;;19.87;55.85
30302;BME280;17111;52.130;5.028;2023-10-31T11:22:46;100332.09;;;19.87;55.64
30302;BME280;17111;52.130;5.028;2023-10-31T11:25:18;100326.72;;;19.87;56.35
30302;BME280;17111;52.130;5.028;2023-10-31T11:28:16;100326.03;;;19.85;55.86
30302;BME280;17111;52.130;5.028;2023-10-31T11:30:43;100322.31;;;19.86;56.13
30302;BME280;17111;52.130;5.028;2023-10-31T11:33:16;100326.03;;;19.85;56.00
30302;BME280;17111;52.130;5.028;2023-10-31T11:35:42;100325.19;;;19.84;56.22
30302;BME280;17111;52.130;5.028;2023-10-31T11:38:12;100327.91;;;19.84;56.07
30302;BME280;17111;52.130;5.028;2023-10-31T11:40:59;100321.00;;;19.82;55.84
30302;BME280;17111;52.130;5.028;2023-10-31T11:46:05;100329.75;;;19.84;56.10
30302;BME280;17111;52.130;5.028;2023-10-31T11:48:51;100328.09;;;19.83;55.91
30302;BME280;17111;52.130;5.028;2023-10-31T11:51:18;100326.22;;;19.83;56.22
30302;BME280;17111;52.130;5.028;2023-10-31T11:53:48;100327.25;;;19.82;55.68
30302;BME280;17111;52.130;5.028;2023-10-31T11:56:16;100328.91;;;19.83;55.67
30302;BME280;17111;52.130;5.028;2023-10-31T11:58:43;100325.41;;;19.83;56.04
30302;BME280;17111;52.130;5.028;2023-10-31T12:01:10;100328.09;;;19.83;55.90
30302;BME280;17111;52.130;5.028;2023-10-31T12:03:37;100337.81;;;19.84;55.60
30302;BME280;17111;52.130;5.028;2023-10-31T12:06:06;100338.00;;;19.82;55.66
30302;BME280;17111;52.130;5.028;2023-10-31T12:08:38;100340.84;;;19.81;55.09
30302;BME280;17111;52.130;5.028;2023-10-31T12:11:12;100346.56;;;19.78;55.43
30302;BME280;17111;52.130;5.028;2023-10-31T12:13:41;100349.94;;;19.80;55.66
30302;BME280;17111;52.130;5.028;2023-10-31T12:16:09;100347.59;;;19.77;55.11
30302;BME280;17111;52.130;5.028;2023-10-31T12:18:37;100356.34;;;19.79;55.88
30302;BME280;17111;52.130;5.028;2023-10-31T12:21:06;100359.69;;;19.81;55.49
30302;BME280;17111;52.130;5.028;2023-10-31T12:23:40;100351.25;;;19.84;55.27
30302;BME280;17111;52.130;5.028;2023-10-31T12:26:07;100359.63;;;19.89;55.80
30302;BME280;17111;52.130;5.028;2023-10-31T12:28:33;100361.97;;;19.92;55.77
30302;BME280;17111;52.130;5.028;2023-10-31T12:31:02;100365.16;;;19.95;55.76
30302;BME280;17111;52.130;5.028;2023-10-31T12:33:28;100362.09;;;19.99;55.37
30302;BME280;17111;52.130;5.028;2023-10-31T12:35:58;100356.53;;;20.00;55.60
30302;BME280;17111;52.130;5.028;2023-10-31T12:38:25;100360.91;;;20.01;55.57
30302;BME280;17111;52.130;5.028;2023-10-31T12:40:52;100364.41;;;20.02;55.37
30302;BME280;17111;52.130;5.028;2023-10-31T12:43:19;100365.28;;;20.02;55.35
30302;BME280;17111;52.130;5.028;2023-10-31T12:45:46;100361.56;;;20.03;55.50
30302;BME280;17111;52.130;5.028;2023-10-31T12:48:13;100363.22;;;20.04;55.83
30302;BME280;17111;52.130;5.028;2023-10-31T12:50:39;100363.44;;;20.03;55.21
30302;BME280;17111;52.130;5.028;2023-10-31T12:53:09;100353.50;;;20.03;54.84
30302;BME280;17111;52.130;5.028;2023-10-31T12:55:42;100353.50;;;20.03;55.85
30302;BME280;17111;52.130;5.028;2023-10-31T12:58:08;100358.69;;;20.05;55.00
30302;BME280;17111;52.130;5.028;2023-10-31T13:00:37;100352.47;;;20.04;55.01
30302;BME280;17111;52.130;5.028;2023-10-31T13:03:05;100358.88;;;20.03;55.27
30302;BME280;17111;52.130;5.028;2023-10-31T13:05:32;100365.28;;;20.02;55.43